Wetterdaten: Woche 17.09.07 - 23.09.07 (KW38)
Datum Zeit Temperatur Luftfeuchte Luftdruck Niederschlag Wind Richtung Sonnenschein Solar Taupunkt Windchill Windben
17.09.2007 00:00 13.9 C 95 % 1016.0 hPa 0.0 l/m 1.1 km/h (0 Bft) O-SO 0.00 h 0 W/m 13.1 C 13.9 C 2.0 km/h (1 Bft)
17.09.2007 01:00 13.3 C 97 % 1015.7 hPa 0.0 l/m 0.6 km/h (0 Bft) O-SO 0.00 h 0 W/m 12.8 C 13.3 C 1.4 km/h (1 Bft)
17.09.2007 02:00 12.9 C 98 % 1015.4 hPa 0.0 l/m 0.4 km/h (0 Bft) O-SO 0.00 h 0 W/m 12.5 C 12.9 C 0.7 km/h (0 Bft)
17.09.2007 03:00 12.5 C 99 % 1015.1 hPa 0.0 l/m 0.1 km/h (0 Bft) O-SO 0.00 h 0 W/m 12.2 C 12.5 C 0.3 km/h (0 Bft)
17.09.2007 04:00 12.7 C 100 % 1014.9 hPa 0.2 l/m 0.4 km/h (0 Bft) O-SO 0.00 h 0 W/m 12.7 C 12.7 C 1.1 km/h (1 Bft)
17.09.2007 05:00 12.6 C 100 % 1014.8 hPa 0.0 l/m 0.4 km/h (0 Bft) O-SO 0.00 h 0 W/m 12.6 C 12.6 C 1.5 km/h (1 Bft)
17.09.2007 06:00 12.5 C 100 % 1014.6 hPa 0.0 l/m 0.0 km/h (0 Bft) O-SO 0.00 h 0 W/m 12.5 C 12.5 C 0.4 km/h (0 Bft)
17.09.2007 07:00 12.2 C 100 % 1014.9 hPa 0.0 l/m 0.0 km/h (0 Bft) O-SO 0.00 h 22 W/m 12.2 C 12.2 C 0.5 km/h (0 Bft)
17.09.2007 08:00 12.6 C 100 % 1015.1 hPa 0.0 l/m 0.1 km/h (0 Bft) O-SO 0.00 h 62 W/m 12.6 C 12.6 C 0.2 km/h (0 Bft)
17.09.2007 09:00 13.5 C 100 % 1015.0 hPa 0.0 l/m 0.1 km/h (0 Bft) SO 0.35 h 212 W/m 13.5 C 13.5 C 0.4 km/h (0 Bft)
17.09.2007 10:00 16.0 C 93 % 1014.7 hPa 0.0 l/m 0.8 km/h (0 Bft) N 0.80 h 396 W/m 14.8 C 16.0 C 2.5 km/h (1 Bft)
17.09.2007 11:00 19.1 C 77 % 1014.3 hPa 0.0 l/m 1.1 km/h (0 Bft) N 0.67 h 445 W/m 15.0 C 19.1 C 2.6 km/h (1 Bft)
17.09.2007 12:00 22.6 C 62 % 1013.3 hPa 0.0 l/m 2.8 km/h (1 Bft) S-SO 0.85 h 614 W/m 14.9 C 22.6 C 6.2 km/h (2 Bft)
17.09.2007 13:00 24.4 C 56 % 1012.6 hPa 0.0 l/m 2.9 km/h (1 Bft) W-SW 1.00 h 633 W/m 15.1 C 24.4 C 5.9 km/h (2 Bft)
17.09.2007 14:00 25.8 C 50 % 1011.4 hPa 0.0 l/m 4.5 km/h (1 Bft) S-SO 0.65 h 419 W/m 14.6 C 25.8 C 8.2 km/h (2 Bft)
17.09.2007 15:00 24.3 C 55 % 1010.9 hPa 0.0 l/m 6.7 km/h (2 Bft) W 0.08 h 196 W/m 14.5 C 24.3 C 10.7 km/h (2 Bft)
17.09.2007 16:00 22.1 C 64 % 1011.4 hPa 0.0 l/m 9.4 km/h (2 Bft) W 0.00 h 95 W/m 15.0 C 22.1 C 14.1 km/h (3 Bft)
17.09.2007 17:00 19.5 C 76 % 1012.0 hPa 0.0 l/m 7.0 km/h (2 Bft) W-NW 0.10 h 87 W/m 15.2 C 19.5 C 11.2 km/h (2 Bft)
17.09.2007 18:00 19.1 C 77 % 1011.4 hPa 0.0 l/m 0.5 km/h (0 Bft) NW 0.08 h 59 W/m 15.0 C 19.1 C 1.7 km/h (1 Bft)
17.09.2007 19:00 17.9 C 81 % 1010.7 hPa 0.0 l/m 0.4 km/h (0 Bft) N-NO 0.00 h 7 W/m 14.7 C 17.9 C 0.9 km/h (0 Bft)
17.09.2007 20:00 16.5 C 89 % 1010.8 hPa 0.0 l/m 1.0 km/h (0 Bft) O 0.00 h 0 W/m 14.7 C 16.5 C 1.8 km/h (1 Bft)
17.09.2007 21:00 16.1 C 92 % 1010.7 hPa 0.0 l/m 0.2 km/h (0 Bft) O 0.00 h 0 W/m 14.7 C 16.1 C 0.7 km/h (0 Bft)
17.09.2007 22:00 15.9 C 95 % 1010.1 hPa 0.4 l/m 1.7 km/h (1 Bft) O-SO 0.00 h 0 W/m 15.0 C 15.9 C 2.9 km/h (1 Bft)
17.09.2007 23:00 15.9 C 98 % 1008.9 hPa 1.2 l/m 2.8 km/h (1 Bft) O-SO 0.00 h 0 W/m 15.6 C 15.9 C 5.2 km/h (1 Bft)
18.09.2007 00:00 15.8 C 99 % 1008.7 hPa 0.6 l/m 1.4 km/h (1 Bft) NW 0.00 h 0 W/m 15.7 C 15.8 C 2.8 km/h (1 Bft)
18.09.2007 01:00 15.4 C 99 % 1008.9 hPa 3.6 l/m 1.8 km/h (1 Bft) W 0.00 h 0 W/m 15.3 C 15.4 C 3.9 km/h (1 Bft)
18.09.2007 02:00 14.8 C 100 % 1008.4 hPa 3.6 l/m 4.9 km/h (1 Bft) W 0.00 h 0 W/m 14.8 C 14.8 C 8.6 km/h (2 Bft)
18.09.2007 03:00 14.8 C 100 % 1007.9 hPa 1.8 l/m 5.7 km/h (1 Bft) W 0.00 h 0 W/m 14.8 C 14.8 C 9.4 km/h (2 Bft)
18.09.2007 04:00 14.7 C 100 % 1008.2 hPa 0.8 l/m 2.7 km/h (1 Bft) W-SW 0.00 h 0 W/m 14.7 C 14.7 C 5.5 km/h (1 Bft)
18.09.2007 05:00 14.6 C 100 % 1008.5 hPa 0.2 l/m 4.7 km/h (1 Bft) W-SW 0.00 h 0 W/m 14.6 C 14.6 C 9.1 km/h (2 Bft)
18.09.2007 06:00 14.3 C 100 % 1009.0 hPa 0.2 l/m 10.9 km/h (2 Bft) W 0.00 h 0 W/m 14.2 C 14.3 C 16.7 km/h (3 Bft)
18.09.2007 07:00 12.8 C 96 % 1010.2 hPa 0.2 l/m 23.5 km/h (4 Bft) W 0.00 h 10 W/m 12.2 C 12.8 C 34.8 km/h (5 Bft)
18.09.2007 08:00 12.0 C 93 % 1011.5 hPa 0.0 l/m 22.4 km/h (4 Bft) W 0.00 h 25 W/m 10.9 C 12.0 C 32.9 km/h (5 Bft)
18.09.2007 09:00 11.5 C 93 % 1013.1 hPa 1.4 l/m 14.9 km/h (3 Bft) W 0.00 h 24 W/m 10.5 C 11.5 C 22.8 km/h (4 Bft)
18.09.2007 10:00 11.0 C 97 % 1014.9 hPa 0.4 l/m 11.7 km/h (2 Bft) W 0.00 h 48 W/m 10.5 C 11.0 C 18.8 km/h (3 Bft)
18.09.2007 11:00 10.8 C 96 % 1016.5 hPa 1.0 l/m 14.1 km/h (3 Bft) W 0.00 h 70 W/m 10.2 C 10.8 C 22.2 km/h (4 Bft)
18.09.2007 12:00 10.5 C 98 % 1017.9 hPa 2.2 l/m 8.1 km/h (2 Bft) W 0.00 h 78 W/m 10.2 C 10.5 C 13.2 km/h (3 Bft)
18.09.2007 13:00 10.7 C 97 % 1018.6 hPa 2.6 l/m 8.0 km/h (2 Bft) W-NW 0.12 h 242 W/m 10.3 C 10.2 C 12.4 km/h (3 Bft)
18.09.2007 14:00 12.1 C 90 % 1018.5 hPa 0.0 l/m 9.2 km/h (2 Bft) W-NW 0.62 h 527 W/m 10.5 C 12.1 C 13.9 km/h (3 Bft)
18.09.2007 15:00 11.9 C 87 % 1019.0 hPa 1.0 l/m 9.2 km/h (2 Bft) W-NW 0.17 h 256 W/m 9.7 C 11.8 C 14.0 km/h (3 Bft)
18.09.2007 16:00 12.6 C 84 % 1019.6 hPa 0.0 l/m 6.2 km/h (2 Bft) W 0.70 h 409 W/m 9.9 C 12.6 C 10.0 km/h (2 Bft)
18.09.2007 17:00 12.9 C 78 % 1020.1 hPa 0.0 l/m 8.2 km/h (2 Bft) W-SW 1.00 h 298 W/m 9.2 C 12.9 C 13.7 km/h (3 Bft)
18.09.2007 18:00 12.2 C 79 % 1020.7 hPa 0.0 l/m 6.5 km/h (2 Bft) W-SW 0.50 h 103 W/m 8.6 C 12.2 C 10.1 km/h (2 Bft)
18.09.2007 19:00 11.6 C 82 % 1021.9 hPa 0.0 l/m 1.6 km/h (1 Bft) S-SO 0.00 h 12 W/m 8.7 C 11.6 C 3.4 km/h (1 Bft)
18.09.2007 20:00 9.9 C 90 % 1023.2 hPa 1.8 l/m 3.8 km/h (1 Bft) O-SO 0.00 h 0 W/m 8.4 C 9.8 C 5.9 km/h (2 Bft)
18.09.2007 21:00 9.5 C 94 % 1023.9 hPa 0.0 l/m 0.3 km/h (0 Bft) O-SO 0.00 h 0 W/m 8.6 C 9.5 C 1.3 km/h (1 Bft)
18.09.2007 22:00 9.2 C 96 % 1024.1 hPa 0.0 l/m 1.0 km/h (0 Bft) O-SO 0.00 h 0 W/m 8.6 C 9.2 C 2.6 km/h (1 Bft)
18.09.2007 23:00 9.2 C 94 % 1024.5 hPa 0.0 l/m 1.6 km/h (1 Bft) S-SO 0.00 h 0 W/m 8.4 C 9.2 C 3.1 km/h (1 Bft)
19.09.2007 00:00 9.2 C 96 % 1024.6 hPa 0.0 l/m 0.1 km/h (0 Bft) SO 0.00 h 0 W/m 8.6 C 9.2 C 1.0 km/h (0 Bft)
19.09.2007 01:00 9.1 C 98 % 1024.5 hPa 0.0 l/m 0.0 km/h (0 Bft) SO 0.00 h 0 W/m 8.8 C 9.1 C 0.2 km/h (0 Bft)
19.09.2007 02:00 9.2 C 98 % 1024.6 hPa 0.0 l/m 0.1 km/h (0 Bft) O-NO 0.00 h 0 W/m 8.9 C 9.2 C 0.8 km/h (0 Bft)
19.09.2007 03:00 9.0 C 99 % 1024.4 hPa 0.0 l/m 0.3 km/h (0 Bft) N 0.00 h 0 W/m 8.8 C 9.0 C 0.9 km/h (0 Bft)
19.09.2007 04:00 8.8 C 99 % 1024.3 hPa 0.0 l/m 0.7 km/h (0 Bft) O 0.00 h 0 W/m 8.6 C 8.8 C 1.6 km/h (1 Bft)
19.09.2007 05:00 8.5 C 99 % 1024.2 hPa 0.0 l/m 0.0 km/h (0 Bft) O 0.00 h 0 W/m 8.4 C 8.5 C 0.5 km/h (0 Bft)
19.09.2007 06:00 8.0 C 100 % 1024.5 hPa 0.0 l/m 0.0 km/h (0 Bft) O 0.00 h 0 W/m 8.0 C 8.0 C 0.1 km/h (0 Bft)
19.09.2007 07:00 6.8 C 99 % 1024.9 hPa 0.0 l/m 0.7 km/h (0 Bft) N 0.08 h 27 W/m 6.7 C 6.8 C 1.8 km/h (1 Bft)
19.09.2007 08:00 7.2 C 98 % 1025.3 hPa 0.0 l/m 0.7 km/h (0 Bft) O-SO 0.20 h 67 W/m 6.9 C 7.2 C 1.6 km/h (1 Bft)
19.09.2007 09:00 8.3 C 96 % 1025.4 hPa 0.0 l/m 0.6 km/h (0 Bft) O-SO 0.02 h 138 W/m 7.7 C 8.3 C 1.6 km/h (1 Bft)
19.09.2007 10:00 9.6 C 89 % 1025.7 hPa 0.0 l/m 2.4 km/h (1 Bft) O-SO 0.20 h 233 W/m 7.8 C 9.5 C 4.6 km/h (1 Bft)
19.09.2007 11:00 11.3 C 83 % 1025.6 hPa 0.0 l/m 2.2 km/h (1 Bft) SO 0.67 h 476 W/m 8.5 C 11.3 C 4.7 km/h (1 Bft)
19.09.2007 12:00 13.1 C 76 % 1025.0 hPa 0.0 l/m 3.7 km/h (1 Bft) S-SO 1.00 h 656 W/m 8.9 C 13.1 C 6.7 km/h (2 Bft)
19.09.2007 13:00 14.3 C 69 % 1024.8 hPa 0.0 l/m 2.1 km/h (1 Bft) SO 0.90 h 612 W/m 8.7 C 14.3 C 4.4 km/h (1 Bft)
19.09.2007 14:00 15.0 C 62 % 1024.4 hPa 0.0 l/m 2.5 km/h (1 Bft) W 0.80 h 542 W/m 7.8 C 15.0 C 5.0 km/h (1 Bft)
19.09.2007 15:00 15.7 C 56 % 1024.2 hPa 0.0 l/m 2.2 km/h (1 Bft) W 0.77 h 478 W/m 7.0 C 15.7 C 4.1 km/h (1 Bft)
19.09.2007 16:00 16.8 C 54 % 1023.7 hPa 0.0 l/m 4.1 km/h (1 Bft) W-NW 0.93 h 429 W/m 7.5 C 16.8 C 6.5 km/h (2 Bft)
19.09.2007 17:00 16.1 C 58 % 1023.7 hPa 0.0 l/m 1.9 km/h (1 Bft) W 0.98 h 275 W/m 7.8 C 16.1 C 3.8 km/h (1 Bft)
19.09.2007 18:00 14.7 C 61 % 1023.9 hPa 0.0 l/m 2.1 km/h (1 Bft) W-NW 0.38 h 90 W/m 7.3 C 14.7 C 4.0 km/h (1 Bft)
19.09.2007 19:00 13.1 C 71 % 1024.1 hPa 0.0 l/m 1.1 km/h (0 Bft) SO 0.02 h 17 W/m 8.0 C 13.1 C 2.4 km/h (1 Bft)
19.09.2007 20:00 10.5 C 85 % 1024.8 hPa 0.0 l/m 2.4 km/h (1 Bft) O-SO 0.00 h 0 W/m 8.1 C 10.5 C 3.8 km/h (1 Bft)
19.09.2007 21:00 9.2 C 89 % 1025.4 hPa 0.0 l/m 1.5 km/h (1 Bft) O-SO 0.00 h 0 W/m 7.5 C 9.2 C 2.0 km/h (1 Bft)
19.09.2007 22:00 8.4 C 92 % 1025.7 hPa 0.0 l/m 1.0 km/h (0 Bft) O-SO 0.00 h 0 W/m 7.1 C 8.4 C 2.1 km/h (1 Bft)
19.09.2007 23:00 7.6 C 95 % 1025.7 hPa 0.0 l/m 0.3 km/h (0 Bft) O 0.00 h 0 W/m 6.8 C 7.6 C 0.7 km/h (0 Bft)
20.09.2007 00:00 6.9 C 96 % 1025.6 hPa 0.0 l/m 1.0 km/h (0 Bft) O 0.00 h 0 W/m 6.2 C 6.9 C 2.0 km/h (1 Bft)
20.09.2007 01:00 6.5 C 96 % 1025.6 hPa 0.0 l/m 0.5 km/h (0 Bft) O 0.00 h 0 W/m 5.9 C 6.5 C 1.0 km/h (0 Bft)
20.09.2007 02:00 6.1 C 97 % 1025.7 hPa 0.0 l/m 1.2 km/h (1 Bft) O 0.00 h 0 W/m 5.6 C 6.1 C 2.1 km/h (1 Bft)
20.09.2007 03:00 5.7 C 97 % 1025.5 hPa 0.0 l/m 0.5 km/h (0 Bft) O 0.00 h 0 W/m 5.3 C 5.7 C 1.3 km/h (1 Bft)
20.09.2007 04:00 5.3 C 97 % 1025.5 hPa 0.2 l/m 1.0 km/h (0 Bft) O 0.00 h 0 W/m 4.9 C 5.3 C 1.6 km/h (1 Bft)
20.09.2007 05:00 5.0 C 98 % 1025.5 hPa 0.0 l/m 0.6 km/h (0 Bft) O 0.00 h 0 W/m 4.7 C 5.0 C 1.5 km/h (1 Bft)
20.09.2007 06:00 5.1 C 98 % 1025.5 hPa 0.0 l/m 0.4 km/h (0 Bft) O 0.00 h 0 W/m 4.8 C 5.1 C 0.9 km/h (0 Bft)
20.09.2007 07:00 5.1 C 99 % 1025.8 hPa 0.0 l/m 0.8 km/h (0 Bft) O 0.08 h 29 W/m 5.1 C 5.1 C 1.7 km/h (1 Bft)
20.09.2007 08:00 5.2 C 100 % 1026.3 hPa 0.0 l/m 0.8 km/h (0 Bft) O 0.22 h 109 W/m 5.2 C 5.2 C 1.9 km/h (1 Bft)
20.09.2007 09:00 6.9 C 96 % 1026.5 hPa 0.0 l/m 0.4 km/h (0 Bft) O 0.83 h 271 W/m 6.3 C 6.9 C 1.5 km/h (1 Bft)
20.09.2007 10:00 9.7 C 85 % 1026.4 hPa 0.0 l/m 0.5 km/h (0 Bft) O-SO 1.00 h 405 W/m 7.3 C 9.7 C 1.7 km/h (1 Bft)
20.09.2007 11:00 12.5 C 74 % 1026.1 hPa 0.0 l/m 1.3 km/h (1 Bft) W-NW 1.00 h 537 W/m 8.0 C 12.5 C 3.1 km/h (1 Bft)
20.09.2007 12:00 14.6 C 67 % 1025.8 hPa 0.0 l/m 2.1 km/h (1 Bft) W-NW 1.00 h 627 W/m 8.5 C 14.6 C 4.2 km/h (1 Bft)
20.09.2007 13:00 16.1 C 60 % 1025.2 hPa 0.0 l/m 2.5 km/h (1 Bft) SO 1.00 h 653 W/m 8.4 C 16.1 C 4.7 km/h (1 Bft)
20.09.2007 14:00 17.2 C 57 % 1024.5 hPa 0.0 l/m 2.8 km/h (1 Bft) O-SO 1.00 h 613 W/m 8.6 C 17.2 C 5.2 km/h (1 Bft)
20.09.2007 15:00 18.1 C 56 % 1024.3 hPa 0.0 l/m 1.8 km/h (1 Bft) S-SO 1.00 h 533 W/m 9.1 C 18.1 C 3.8 km/h (1 Bft)
20.09.2007 16:00 18.1 C 49 % 1023.9 hPa 0.0 l/m 1.2 km/h (1 Bft) S-SW 1.00 h 407 W/m 7.3 C 18.1 C 3.1 km/h (1 Bft)
20.09.2007 17:00 18.2 C 51 % 1023.7 hPa 0.0 l/m 1.4 km/h (1 Bft) W-SW 1.00 h 261 W/m 7.7 C 18.2 C 3.1 km/h (1 Bft)
20.09.2007 18:00 17.1 C 58 % 1023.8 hPa 0.0 l/m 0.7 km/h (0 Bft) W 1.00 h 133 W/m 8.8 C 17.1 C 1.9 km/h (1 Bft)
20.09.2007 19:00 14.7 C 74 % 1024.1 hPa 0.0 l/m 1.9 km/h (1 Bft) O-SO 0.15 h 20 W/m 10.1 C 14.7 C 2.9 km/h (1 Bft)
20.09.2007 20:00 12.2 C 84 % 1024.9 hPa 0.0 l/m 4.0 km/h (1 Bft) O-SO 0.00 h 0 W/m 9.7 C 12.2 C 5.6 km/h (1 Bft)
20.09.2007 21:00 11.0 C 88 % 1025.2 hPa 0.0 l/m 1.6 km/h (1 Bft) O-SO 0.00 h 0 W/m 9.1 C 11.0 C 2.7 km/h (1 Bft)
20.09.2007 22:00 9.9 C 93 % 1025.6 hPa 0.0 l/m 0.5 km/h (0 Bft) O-SO 0.00 h 0 W/m 8.8 C 9.9 C 1.4 km/h (1 Bft)
20.09.2007 23:00 9.1 C 94 % 1025.5 hPa 0.0 l/m 0.2 km/h (0 Bft) O-SO 0.00 h 0 W/m 8.3 C 9.1 C 1.0 km/h (0 Bft)
21.09.2007 00:00 8.4 C 96 % 1025.5 hPa 0.0 l/m 0.4 km/h (0 Bft) O-SO 0.00 h 0 W/m 7.8 C 8.4 C 1.0 km/h (0 Bft)
21.09.2007 01:00 7.9 C 97 % 1025.7 hPa 0.0 l/m 0.4 km/h (0 Bft) O-SO 0.00 h 0 W/m 7.4 C 7.9 C 1.1 km/h (1 Bft)
21.09.2007 02:00 7.3 C 97 % 1025.5 hPa 0.0 l/m 1.0 km/h (0 Bft) O-SO 0.00 h 0 W/m 6.9 C 7.3 C 1.7 km/h (1 Bft)
21.09.2007 03:00 6.9 C 98 % 1025.2 hPa 0.0 l/m 0.7 km/h (0 Bft) O-SO 0.00 h 0 W/m 6.5 C 6.9 C 1.4 km/h (1 Bft)
21.09.2007 04:00 6.5 C 98 % 1025.4 hPa 0.0 l/m 0.4 km/h (0 Bft) O-SO 0.00 h 0 W/m 6.2 C 6.5 C 1.1 km/h (0 Bft)
21.09.2007 05:00 6.4 C 98 % 1025.4 hPa 0.0 l/m 0.4 km/h (0 Bft) O-SO 0.00 h 0 W/m 6.1 C 6.4 C 0.7 km/h (0 Bft)
21.09.2007 06:00 6.0 C 98 % 1025.5 hPa 0.0 l/m 0.6 km/h (0 Bft) O-SO 0.00 h 0 W/m 5.7 C 6.0 C 1.3 km/h (1 Bft)
21.09.2007 07:00 6.2 C 99 % 1025.8 hPa 0.2 l/m 0.5 km/h (0 Bft) O-SO 0.00 h 18 W/m 6.1 C 6.2 C 1.0 km/h (0 Bft)
21.09.2007 08:00 6.8 C 100 % 1026.1 hPa 0.0 l/m 0.4 km/h (0 Bft) O-SO 0.00 h 82 W/m 6.8 C 6.8 C 1.4 km/h (1 Bft)
21.09.2007 09:00 8.0 C 99 % 1025.9 hPa 0.0 l/m 0.4 km/h (0 Bft) SO 0.10 h 175 W/m 7.9 C 8.0 C 1.5 km/h (1 Bft)
21.09.2007 10:00 9.9 C 94 % 1025.9 hPa 0.0 l/m 0.7 km/h (0 Bft) W-SW 0.70 h 342 W/m 9.0 C 9.9 C 1.9 km/h (1 Bft)
21.09.2007 11:00 13.3 C 83 % 1025.4 hPa 0.0 l/m 1.9 km/h (1 Bft) W 1.00 h 542 W/m 10.6 C 13.3 C 3.7 km/h (1 Bft)
21.09.2007 12:00 16.3 C 73 % 1024.6 hPa 0.0 l/m 1.6 km/h (1 Bft) W-NW 1.00 h 610 W/m 11.4 C 16.3 C 3.4 km/h (1 Bft)
21.09.2007 13:00 18.4 C 61 % 1023.8 hPa 0.0 l/m 1.8 km/h (1 Bft) O-SO 1.00 h 637 W/m 10.8 C 18.4 C 3.9 km/h (1 Bft)
21.09.2007 14:00 20.0 C 55 % 1022.9 hPa 0.0 l/m 1.2 km/h (1 Bft) W 1.00 h 607 W/m 10.6 C 20.0 C 2.9 km/h (1 Bft)
21.09.2007 15:00 20.7 C 53 % 1022.4 hPa 0.0 l/m 1.2 km/h (1 Bft) SO 1.00 h 476 W/m 10.9 C 20.7 C 2.9 km/h (1 Bft)
21.09.2007 16:00 20.8 C 53 % 1021.9 hPa 0.0 l/m 1.5 km/h (1 Bft) O-SO 1.00 h 351 W/m 10.9 C 20.8 C 3.3 km/h (1 Bft)
21.09.2007 17:00 20.6 C 57 % 1021.6 hPa 0.0 l/m 0.8 km/h (0 Bft) O-SO 0.98 h 213 W/m 11.8 C 20.6 C 2.2 km/h (1 Bft)
21.09.2007 18:00 19.0 C 68 % 1021.6 hPa 0.0 l/m 3.2 km/h (1 Bft) O-SO 0.33 h 78 W/m 13.0 C 19.0 C 4.6 km/h (1 Bft)
21.09.2007 19:00 16.3 C 81 % 1022.0 hPa 0.0 l/m 2.9 km/h (1 Bft) O-SO 0.02 h 16 W/m 13.1 C 16.3 C 4.0 km/h (1 Bft)
21.09.2007 20:00 14.2 C 87 % 1022.4 hPa 0.0 l/m 1.8 km/h (1 Bft) O-SO 0.00 h 0 W/m 12.1 C 14.2 C 3.2 km/h (1 Bft)
21.09.2007 21:00 12.9 C 91 % 1022.8 hPa 0.0 l/m 1.6 km/h (1 Bft) O-SO 0.00 h 0 W/m 11.4 C 12.9 C 2.7 km/h (1 Bft)
21.09.2007 22:00 12.0 C 94 % 1023.0 hPa 0.0 l/m 0.2 km/h (0 Bft) O-SO 0.00 h 0 W/m 11.0 C 12.0 C 0.7 km/h (0 Bft)
21.09.2007 23:00 11.3 C 95 % 1022.9 hPa 0.0 l/m 1.1 km/h (1 Bft) O-SO 0.00 h 0 W/m 10.5 C 11.3 C 2.0 km/h (1 Bft)
22.09.2007 00:00 10.6 C 97 % 1022.7 hPa 0.0 l/m 0.5 km/h (0 Bft) O-SO 0.00 h 0 W/m 10.1 C 10.6 C 1.3 km/h (1 Bft)
22.09.2007 01:00 10.0 C 98 % 1022.7 hPa 0.0 l/m 0.6 km/h (0 Bft) O-SO 0.00 h 0 W/m 9.6 C 10.0 C 1.1 km/h (1 Bft)
22.09.2007 02:00 9.6 C 98 % 1022.7 hPa 0.0 l/m 0.2 km/h (0 Bft) O-SO 0.00 h 0 W/m 9.4 C 9.6 C 0.8 km/h (0 Bft)
22.09.2007 03:00 9.2 C 99 % 1022.8 hPa 0.0 l/m 0.4 km/h (0 Bft) O-SO 0.00 h 0 W/m 9.1 C 9.2 C 0.9 km/h (0 Bft)
22.09.2007 04:00 9.7 C 99 % 1023.0 hPa 0.0 l/m 0.2 km/h (0 Bft) O-SO 0.00 h 0 W/m 9.6 C 9.7 C 0.8 km/h (0 Bft)
22.09.2007 05:00 9.7 C 100 % 1023.2 hPa 0.0 l/m 2.0 km/h (1 Bft) O 0.00 h 0 W/m 9.7 C 9.7 C 3.3 km/h (1 Bft)
22.09.2007 06:00 9.7 C 100 % 1023.4 hPa 0.2 l/m 1.3 km/h (1 Bft) O 0.00 h 0 W/m 9.7 C 9.7 C 2.5 km/h (1 Bft)
22.09.2007 07:00 9.8 C 100 % 1024.0 hPa 0.0 l/m 2.1 km/h (1 Bft) O 0.00 h 10 W/m 9.8 C 9.8 C 4.0 km/h (1 Bft)
22.09.2007 08:00 10.1 C 100 % 1024.5 hPa 0.0 l/m 1.0 km/h (0 Bft) O 0.00 h 52 W/m 10.1 C 10.1 C 2.7 km/h (1 Bft)
22.09.2007 09:00 11.0 C 100 % 1024.8 hPa 0.0 l/m 0.6 km/h (0 Bft) O 0.17 h 177 W/m 11.0 C 11.0 C 1.4 km/h (1 Bft)
22.09.2007 10:00 13.6 C 92 % 1024.6 hPa 0.0 l/m 1.2 km/h (1 Bft) N-NW 1.00 h 411 W/m 12.3 C 13.6 C 2.8 km/h (1 Bft)
22.09.2007 11:00 16.7 C 77 % 1024.0 hPa 0.0 l/m 1.2 km/h (1 Bft) N-NW 1.00 h 528 W/m 12.7 C 16.7 C 2.6 km/h (1 Bft)
22.09.2007 12:00 19.1 C 71 % 1023.2 hPa 0.0 l/m 1.4 km/h (1 Bft) W-NW 1.00 h 598 W/m 13.6 C 19.1 C 2.9 km/h (1 Bft)
22.09.2007 13:00 21.0 C 61 % 1022.5 hPa 0.0 l/m 2.3 km/h (1 Bft) S-SO 1.00 h 611 W/m 13.3 C 21.0 C 4.5 km/h (1 Bft)
22.09.2007 14:00 22.4 C 56 % 1021.9 hPa 0.0 l/m 1.7 km/h (1 Bft) W 0.98 h 579 W/m 13.2 C 22.4 C 3.8 km/h (1 Bft)
22.09.2007 15:00 23.6 C 54 % 1021.4 hPa 0.0 l/m 1.9 km/h (1 Bft) W-SW 1.00 h 542 W/m 13.7 C 23.6 C 3.5 km/h (1 Bft)
22.09.2007 16:00 23.8 C 55 % 1020.8 hPa 0.0 l/m 2.8 km/h (1 Bft) W-SW 1.00 h 348 W/m 14.2 C 23.8 C 4.9 km/h (1 Bft)
22.09.2007 17:00 22.5 C 60 % 1021.0 hPa 0.0 l/m 3.5 km/h (1 Bft) W-SW 0.43 h 178 W/m 14.3 C 22.5 C 5.9 km/h (2 Bft)
22.09.2007 18:00 21.3 C 63 % 1021.5 hPa 0.0 l/m 5.0 km/h (1 Bft) W-SW 1.00 h 98 W/m 14.1 C 21.3 C 8.4 km/h (2 Bft)
22.09.2007 19:00 19.7 C 67 % 1022.2 hPa 0.0 l/m 1.5 km/h (1 Bft) O-SO 0.27 h 26 W/m 13.4 C 19.7 C 3.7 km/h (1 Bft)
22.09.2007 20:00 17.6 C 76 % 1022.8 hPa 0.0 l/m 3.0 km/h (1 Bft) O 0.00 h 0 W/m 13.2 C 17.6 C 4.4 km/h (1 Bft)
22.09.2007 21:00 15.8 C 83 % 1023.1 hPa 0.0 l/m 2.5 km/h (1 Bft) O 0.00 h 0 W/m 12.8 C 15.8 C 3.9 km/h (1 Bft)
22.09.2007 22:00 14.2 C 89 % 1023.2 hPa 0.0 l/m 1.7 km/h (1 Bft) O-SO 0.00 h 0 W/m 12.4 C 14.2 C 2.9 km/h (1 Bft)
22.09.2007 23:00 13.2 C 92 % 1023.2 hPa 0.0 l/m 0.7 km/h (0 Bft) O-SO 0.00 h 0 W/m 12.0 C 13.2 C 1.4 km/h (1 Bft)
23.09.2007 00:00 12.5 C 94 % 1023.1 hPa 0.0 l/m 0.2 km/h (0 Bft) O 0.00 h 0 W/m 11.6 C 12.5 C 0.9 km/h (0 Bft)
23.09.2007 01:00 11.7 C 96 % 1023.5 hPa 0.0 l/m 1.5 km/h (1 Bft) O 0.00 h 0 W/m 11.2 C 11.7 C 2.2 km/h (1 Bft)
23.09.2007 02:00 11.3 C 97 % 1023.3 hPa 0.0 l/m 0.3 km/h (0 Bft) O 0.00 h 0 W/m 10.9 C 11.3 C 0.8 km/h (0 Bft)
23.09.2007 03:00 10.7 C 98 % 1022.9 hPa 0.0 l/m 0.6 km/h (0 Bft) O 0.00 h 0 W/m 10.4 C 10.7 C 1.2 km/h (1 Bft)
23.09.2007 04:00 10.3 C 98 % 1023.0 hPa 0.0 l/m 0.7 km/h (0 Bft) O 0.00 h 0 W/m 10.0 C 10.3 C 1.5 km/h (1 Bft)
23.09.2007 05:00 9.8 C 99 % 1023.1 hPa 0.0 l/m 0.2 km/h (0 Bft) O 0.00 h 0 W/m 9.6 C 9.8 C 0.5 km/h (0 Bft)
23.09.2007 06:00 9.7 C 99 % 1023.2 hPa 0.0 l/m 0.2 km/h (0 Bft) O 0.00 h 0 W/m 9.5 C 9.7 C 0.7 km/h (0 Bft)
23.09.2007 07:00 10.2 C 99 % 1023.3 hPa 0.0 l/m 0.1 km/h (0 Bft) O 0.05 h 22 W/m 10.1 C 10.2 C 0.3 km/h (0 Bft)
23.09.2007 08:00 10.9 C 98 % 1023.6 hPa 0.0 l/m 0.0 km/h (0 Bft) N 0.45 h 107 W/m 10.7 C 10.9 C 0.0 km/h (0 Bft)
23.09.2007 09:00 12.9 C 91 % 1023.9 hPa 0.0 l/m 0.2 km/h (0 Bft) NO 1.00 h 258 W/m 11.5 C 12.9 C 0.5 km/h (0 Bft)
23.09.2007 10:00 15.5 C 83 % 1023.8 hPa 0.0 l/m 0.9 km/h (0 Bft) NO 1.00 h 434 W/m 12.6 C 15.5 C 2.1 km/h (1 Bft)
23.09.2007 11:00 18.0 C 77 % 1023.6 hPa 0.0 l/m 1.9 km/h (1 Bft) NW 1.00 h 528 W/m 13.9 C 18.0 C 3.6 km/h (1 Bft)
23.09.2007 12:00 20.0 C 73 % 1023.2 hPa 0.0 l/m 1.7 km/h (1 Bft) W 1.00 h 593 W/m 14.9 C 20.0 C 3.4 km/h (1 Bft)
23.09.2007 13:00 21.6 C 67 % 1022.6 hPa 0.0 l/m 2.1 km/h (1 Bft) W 1.00 h 613 W/m 15.2 C 21.6 C 4.0 km/h (1 Bft)
23.09.2007 14:00 22.5 C 62 % 1021.8 hPa 0.0 l/m 2.1 km/h (1 Bft) SO 1.00 h 586 W/m 14.8 C 22.5 C 4.8 km/h (1 Bft)
23.09.2007 15:00 23.6 C 60 % 1021.2 hPa 0.0 l/m 1.8 km/h (1 Bft) N-NW 1.00 h 507 W/m 15.4 C 23.6 C 3.5 km/h (1 Bft)
23.09.2007 16:00 23.8 C 51 % 1020.7 hPa 0.0 l/m 2.0 km/h (1 Bft) O-SO 1.00 h 389 W/m 13.1 C 23.8 C 3.9 km/h (1 Bft)
23.09.2007 17:00 23.2 C 48 % 1020.3 hPa 0.0 l/m 4.0 km/h (1 Bft) O-SO 1.00 h 241 W/m 11.8 C 23.2 C 5.9 km/h (2 Bft)
23.09.2007 18:00 22.1 C 56 % 1020.3 hPa 0.0 l/m 2.2 km/h (1 Bft) O-SO 0.53 h 83 W/m 13.0 C 22.1 C 3.6 km/h (1 Bft)
23.09.2007 19:00 18.7 C 73 % 1020.6 hPa 0.0 l/m 0.5 km/h (0 Bft) O-SO 0.00 h 11 W/m 13.7 C 18.7 C 1.4 km/h (1 Bft)
23.09.2007 20:00 16.2 C 83 % 1021.0 hPa 0.0 l/m 1.8 km/h (1 Bft) O-SO 0.00 h 0 W/m 13.3 C 16.2 C 2.8 km/h (1 Bft)
23.09.2007 21:00 14.7 C 89 % 1021.1 hPa 0.0 l/m 2.0 km/h (1 Bft) O 0.00 h 0 W/m 12.8 C 14.7 C 2.8 km/h (1 Bft)
23.09.2007 22:00 13.9 C 91 % 1021.0 hPa 0.0 l/m 0.9 km/h (0 Bft) O 0.00 h 0 W/m 12.4 C 13.9 C 1.8 km/h (1 Bft)
23.09.2007 23:00 13.2 C 93 % 1020.8 hPa 0.0 l/m 0.8 km/h (0 Bft) O 0.00 h 0 W/m 12.1 C 13.2 C 1.4 km/h (1 Bft)
Min-Datum _ 20.09.07 20.09.07 18.09.07 - 17.09.07 - - - 20.09.07 20.09.07 17.09.07
_ Min-Zeit 06:00 16:01 03:00 - 00:00 - - - 05:37 05:37 00:00
Minimum _ 4.8 C 44 % 1007.8 hPa - 0.0 km/h (0 Bft) - - - 4.5 C 4.9 C 0.0 km/h (0 Bft)
Max-Datum _ 17.09.07 17.09.07 20.09.07 18.09.07 18.09.07 - 17.09.07 18.09.07 23.09.07 17.09.07 18.09.07
_ Max-Zeit 14:20 04:10 09:15 01:00 07:41 - 09:04 14:52 15:05 14:20 07:17
Maximum _ 26.2 C 100 % 1026.7 hPa 3.6 l/m 35.7 km/h
W (5 Bft)
- 0.02 h 872 W/m 16.7 C 26.2 C 52.1 km/h
W (7 Bft)
Durchschnitt _ 13.4 C 85 % 1021.2 hPa #23.8 l/m 2.3 km/h (1 Bft) O-SO #51:56 h 293 W/m 10.5 C 13.4 C 4.0 km/h (1 Bft)
© Kaiko 2007